createdAt,value
2019-01-13T00:04:48.162Z,70.73
2019-01-13T00:09:49.897Z,90.90
2019-01-13T00:14:51.591Z,99.77
2019-01-13T00:19:53.345Z,81.70
2019-01-13T00:24:55.123Z,92.20
2019-01-13T00:29:56.896Z,65.47
2019-01-13T00:34:58.671Z,48.53
2019-01-13T00:40:00.455Z,68.40
2019-01-13T00:45:02.334Z,67.10
2019-01-13T00:50:12.917Z,67.20
2019-01-13T00:55:15.409Z,82.97
2019-01-13T01:00:26.448Z,82.07
2019-01-13T01:05:23.984Z,59.67
2019-01-13T01:10:25.796Z,76.37
2019-01-13T01:15:33.600Z,64.73
2019-01-13T01:20:35.796Z,80.70
2019-01-13T01:25:37.952Z,67.50
2019-01-13T01:30:40.235Z,54.70
2019-01-13T01:35:42.019Z,35.13
2019-01-13T01:40:43.763Z,60.63
2019-01-13T01:45:45.565Z,58.17
2019-01-13T01:50:47.345Z,66.33
2019-01-13T01:55:49.423Z,42.03
2019-01-13T02:00:51.305Z,37.70
2019-01-13T02:05:53.105Z,46.67
2019-01-13T02:10:54.862Z,63.53
2019-01-13T02:15:56.635Z,50.27
2019-01-13T02:20:58.838Z,53.97
2019-01-13T02:26:00.597Z,77.43
2019-01-13T02:31:02.375Z,54.20
2019-01-13T02:36:04.046Z,63.90
2019-01-13T02:41:05.822Z,65.73
2019-01-13T02:46:07.596Z,72.47
2019-01-13T02:51:09.371Z,54.67
2019-01-13T02:56:11.479Z,47.30
2019-01-13T03:01:13.337Z,67.27
2019-01-13T03:06:15.522Z,73.70
2019-01-13T03:11:17.398Z,85.87
2019-01-13T03:16:19.083Z,65.10
2019-01-13T03:21:20.753Z,67.00
2019-01-13T03:26:22.524Z,60.83
2019-01-13T03:31:24.197Z,64.27
2019-01-13T03:36:25.978Z,70.37
2019-01-13T03:41:27.753Z,81.43
2019-01-13T03:46:29.372Z,63.30
2019-01-13T03:51:31.615Z,72.97
2019-01-13T03:56:33.292Z,63.53
2019-01-13T04:01:34.958Z,69.30
2019-01-13T04:06:36.843Z,72.57
2019-01-13T04:11:39.125Z,75.70
2019-01-13T04:16:40.900Z,64.97
2019-01-13T04:21:42.676Z,49.53
2019-01-13T04:26:44.460Z,59.30
2019-01-13T04:31:46.231Z,51.77
2019-01-13T04:36:47.906Z,56.17
2019-01-13T04:41:49.679Z,56.90
2019-01-13T04:46:51.362Z,50.13
2019-01-13T04:51:53.137Z,36.97
2019-01-13T04:56:54.810Z,28.70
2019-01-13T05:01:56.586Z,37.03
2019-01-13T05:07:00.818Z,15.70
2019-01-13T05:12:02.552Z,28.20
2019-01-13T05:17:04.166Z,21.13
2019-01-13T05:22:06.354Z,35.23
2019-01-13T05:27:08.029Z,21.13
2019-01-13T05:32:09.803Z,41.90
2019-01-13T05:37:11.584Z,17.93
2019-01-13T05:42:13.254Z,33.23
2019-01-13T05:47:15.762Z,41.77
2019-01-13T05:52:17.450Z,22.23
2019-01-13T05:57:19.648Z,29.00
2019-01-13T06:02:21.439Z,30.03
2019-01-13T06:07:23.334Z,12.30
2019-01-13T06:12:25.130Z,15.63
2019-01-13T06:17:26.917Z,28.33
2019-01-13T06:22:28.708Z,25.60
2019-01-13T06:27:30.498Z,65.57
2019-01-13T06:32:32.291Z,45.93
2019-01-13T06:37:34.484Z,37.07
2019-01-13T06:42:36.244Z,44.13
2019-01-13T06:47:38.034Z,34.20
2019-01-13T06:52:39.824Z,40.20
2019-01-13T06:57:42.224Z,34.57
2019-01-13T07:02:44.263Z,25.23
2019-01-13T07:07:46.943Z,15.10
2019-01-13T07:12:48.712Z,14.50
2019-01-13T07:17:50.812Z,22.23
2019-01-13T07:22:52.521Z,14.27
2019-01-13T07:27:54.183Z,19.00
2019-01-13T07:32:55.940Z,10.80
2019-01-13T07:37:57.635Z,11.40
2019-01-13T07:42:59.454Z,10.90
2019-01-13T07:48:01.211Z,11.97
2019-01-13T07:53:02.885Z,6.80
2019-01-13T07:58:05.136Z,8.70
2019-01-13T08:03:06.785Z,11.63
2019-01-13T08:08:08.708Z,5.50
2019-01-13T08:13:10.378Z,2.63
2019-01-13T08:18:12.156Z,3.67
2019-01-13T08:23:14.395Z,5.40
2019-01-13T08:28:16.495Z,2.70
2019-01-13T08:33:18.609Z,3.30
2019-01-13T08:38:20.357Z,2.20
2019-01-13T08:43:22.031Z,2.90
2019-01-13T08:48:24.321Z,3.27
2019-01-13T08:53:26.098Z,4.70
2019-01-13T08:58:29.759Z,3.90
2019-01-13T09:03:31.939Z,7.60
2019-01-13T09:08:37.724Z,10.80
2019-01-13T09:13:41.577Z,11.13
2019-01-13T09:18:43.444Z,13.83
2019-01-13T09:23:45.225Z,21.13
2019-01-13T09:28:47.000Z,20.13
2019-01-13T09:33:48.775Z,16.40
2019-01-13T09:38:50.449Z,19.83
2019-01-13T09:43:52.566Z,26.87
2019-01-13T09:48:54.313Z,37.07
2019-01-13T09:54:03.736Z,38.97
2019-01-13T09:59:06.471Z,41.73
2019-01-13T10:04:08.341Z,30.00
2019-01-13T10:09:10.761Z,19.63
2019-01-13T10:14:12.510Z,29.87
2019-01-13T10:19:14.289Z,31.33
2019-01-13T10:24:16.064Z,23.47
2019-01-13T10:29:18.560Z,29.90
2019-01-13T10:34:20.435Z,41.70
2019-01-13T10:39:22.112Z,25.83
2019-01-13T10:44:24.195Z,23.53
2019-01-13T10:49:26.390Z,28.70
2019-01-13T10:54:28.465Z,25.60
2019-01-13T10:59:30.245Z,55.60
2019-01-13T11:04:40.956Z,50.43
2019-01-13T11:09:43.418Z,64.07
2019-01-13T11:14:45.473Z,76.80
2019-01-13T11:19:50.710Z,67.23
2019-01-13T11:24:52.755Z,71.77
2019-01-13T11:29:54.544Z,52.63
2019-01-13T11:34:56.249Z,53.93
2019-01-13T11:39:57.987Z,62.53
2019-01-13T11:44:59.951Z,23.20
2019-01-13T11:50:01.827Z,32.93
2019-01-13T11:55:07.189Z,44.57
2019-01-13T12:00:17.876Z,59.77
2019-01-13T12:05:19.551Z,68.67
2019-01-13T12:10:21.441Z,69.20
2019-01-13T12:15:23.484Z,64.97
2019-01-13T12:20:25.565Z,67.37
2019-01-13T12:25:28.513Z,68.20
2019-01-13T12:30:30.595Z,59.10
2019-01-13T12:35:32.273Z,57.27
2019-01-13T12:40:34.044Z,59.57
2019-01-13T12:45:35.819Z,67.70
2019-01-13T12:50:37.798Z,92.80
2019-01-13T12:55:39.598Z,74.17
2019-01-13T13:00:54.092Z,91.03
2019-01-13T13:05:56.064Z,41.73
2019-01-13T13:10:57.840Z,26.77
2019-01-13T13:16:00.676Z,34.10
2019-01-13T13:21:03.660Z,10.33
2019-01-13T13:26:05.334Z,6.93
2019-01-13T13:31:07.098Z,8.43
2019-01-13T13:36:10.305Z,8.00
2019-01-13T13:41:12.439Z,10.67
2019-01-13T13:46:14.609Z,4.23
2019-01-13T13:51:16.750Z,4.77
2019-01-13T13:56:18.546Z,10.50
2019-01-13T14:01:20.403Z,11.50
2019-01-13T14:06:22.124Z,10.83
2019-01-13T14:11:23.925Z,9.00
2019-01-13T14:16:25.747Z,32.90
2019-01-13T14:21:27.511Z,53.97
2019-01-13T14:26:29.268Z,44.90
2019-01-13T14:31:31.044Z,58.90
2019-01-13T14:36:32.819Z,62.50
2019-01-13T14:41:34.697Z,69.27
2019-01-13T14:46:36.405Z,82.37
2019-01-13T14:51:38.249Z,75.13
2019-01-13T14:56:39.973Z,61.17
2019-01-13T15:01:44.768Z,68.93
2019-01-13T15:06:46.543Z,67.27
2019-01-13T15:11:48.322Z,85.07
2019-01-13T15:16:50.099Z,74.03
2019-01-13T15:21:51.881Z,63.07
2019-01-13T15:26:53.656Z,79.40
2019-01-13T15:31:55.398Z,71.80
2019-01-13T15:36:59.265Z,64.57
2019-01-13T15:42:01.165Z,81.97
2019-01-13T15:47:02.935Z,80.20
2019-01-13T15:52:04.761Z,86.93
2019-01-13T15:57:06.599Z,95.90
2019-01-13T16:02:08.477Z,86.67
2019-01-13T16:07:10.247Z,73.20
2019-01-13T16:12:12.035Z,86.70
2019-01-13T16:17:13.802Z,97.80
2019-01-13T16:22:15.588Z,99.33
2019-01-13T16:27:18.267Z,88.73
2019-01-13T16:32:21.837Z,73.97
2019-01-13T16:37:23.568Z,79.27
2019-01-13T16:42:27.034Z,65.27
2019-01-13T16:47:28.761Z,51.50
2019-01-13T16:52:30.662Z,70.93
2019-01-13T16:57:32.440Z,71.37
2019-01-13T17:02:34.711Z,72.67
2019-01-13T17:07:36.496Z,73.40
2019-01-13T17:12:38.376Z,59.73
2019-01-13T17:17:40.488Z,67.30
2019-01-13T17:22:42.538Z,62.40
2019-01-13T17:27:44.326Z,66.00
2019-01-13T17:32:46.408Z,54.80
2019-01-13T17:37:48.126Z,53.03
2019-01-13T17:42:50.270Z,69.87
2019-01-13T17:47:53.085Z,72.67
2019-01-13T17:52:55.039Z,93.53
2019-01-13T17:57:56.813Z,93.03
2019-01-13T18:03:01.459Z,68.80
2019-01-13T18:08:03.191Z,79.83
2019-01-13T18:13:04.948Z,70.87
2019-01-13T18:18:06.670Z,68.30
2019-01-13T18:23:10.752Z,61.20
2019-01-13T18:28:13.294Z,52.30
2019-01-13T18:33:15.178Z,60.70
2019-01-13T18:38:16.950Z,69.27
2019-01-13T18:43:20.912Z,54.73
2019-01-13T18:48:22.663Z,51.20
2019-01-13T18:53:24.539Z,75.97
2019-01-13T18:58:26.312Z,56.30
2019-01-13T19:03:28.251Z,54.37
2019-01-13T19:08:30.060Z,49.13
2019-01-13T19:14:01.436Z,59.77
2019-01-13T19:19:03.216Z,61.23
2019-01-13T19:24:05.070Z,65.70
2019-01-13T19:29:06.875Z,60.73
2019-01-13T19:34:08.646Z,70.80
2019-01-13T19:39:10.424Z,79.27
2019-01-13T19:44:12.198Z,80.27
2019-01-13T19:49:13.873Z,84.87
2019-01-13T19:54:15.750Z,85.07
2019-01-13T19:59:17.529Z,81.17
2019-01-13T20:04:19.408Z,80.43
2019-01-13T20:09:21.135Z,85.53
2019-01-13T20:14:23.065Z,88.47
2019-01-13T20:19:24.842Z,83.93
2019-01-13T20:24:26.633Z,70.53
2019-01-13T20:29:29.472Z,74.33
2019-01-13T20:34:31.272Z,69.97
2019-01-13T20:39:33.064Z,79.13
2019-01-13T20:44:34.800Z,89.97
2019-01-13T20:49:36.505Z,78.37
2019-01-13T20:54:38.228Z,78.53
2019-01-13T20:59:39.959Z,79.27
2019-01-13T21:04:41.685Z,70.97
2019-01-13T21:09:43.675Z,79.03
2019-01-13T21:14:45.592Z,69.17
2019-01-13T21:19:47.379Z,76.17
2019-01-13T21:24:49.131Z,67.13
2019-01-13T21:29:50.842Z,67.20
2019-01-13T21:34:52.645Z,87.07
2019-01-13T21:39:54.436Z,77.50
2019-01-13T21:44:56.243Z,81.70
2019-01-13T21:49:58.071Z,88.93
2019-01-13T21:54:59.836Z,82.57
2019-01-13T22:00:03.594Z,99.43
2019-01-13T22:05:07.852Z,77.00
2019-01-13T22:10:14.878Z,86.33
2019-01-13T22:15:18.615Z,90.43
2019-01-13T22:20:22.155Z,67.50
2019-01-13T22:25:23.948Z,72.23
2019-01-13T22:30:25.725Z,74.87
2019-01-13T22:35:27.515Z,75.43
2019-01-13T22:40:29.297Z,82.27
2019-01-13T22:45:32.710Z,82.00
2019-01-13T22:50:34.714Z,56.23
2019-01-13T22:55:36.607Z,66.60
2019-01-13T23:00:49.160Z,76.33
2019-01-13T23:05:55.634Z,71.77
2019-01-13T23:10:54.654Z,63.47
2019-01-13T23:15:56.475Z,46.50
2019-01-13T23:20:58.165Z,42.77
2019-01-13T23:25:59.915Z,42.50
2019-01-13T23:31:01.588Z,47.67
2019-01-13T23:36:03.561Z,62.97
2019-01-13T23:41:05.351Z,32.60
2019-01-13T23:46:07.161Z,47.50
2019-01-13T23:51:08.941Z,42.37
2019-01-13T23:56:10.823Z,45.73
